sensor_id;sensor_type;location;lat;lon;timestamp;pressure;altitude;pressure_sealevel;temperature;humidity
21357;BME280;10836;53.068;18.234;2023-01-31T00:01:28;99908.88;;;2.49;100.00
21357;BME280;10836;53.068;18.234;2023-01-31T00:04:01;99918.72;;;2.44;100.00
21357;BME280;10836;53.068;18.234;2023-01-31T00:06:31;99923.88;;;2.45;100.00
21357;BME280;10836;53.068;18.234;2023-01-31T00:09:00;99927.72;;;2.49;100.00
21357;BME280;10836;53.068;18.234;2023-01-31T00:11:29;99936.03;;;2.59;100.00
21357;BME280;10836;53.068;18.234;2023-01-31T00:13:57;99942.72;;;2.57;100.00
21357;BME280;10836;53.068;18.234;2023-01-31T00:16:25;99942.75;;;2.74;100.00
21357;BME280;10836;53.068;18.234;2023-01-31T00:18:52;99948.03;;;2.68;100.00
21357;BME280;10836;53.068;18.234;2023-01-31T00:21:22;99953.91;;;2.65;100.00
21357;BME280;10836;53.068;18.234;2023-01-31T00:23:50;99946.41;;;2.67;100.00
21357;BME280;10836;53.068;18.234;2023-01-31T00:28:46;99964.31;;;2.74;100.00
21357;BME280;10836;53.068;18.234;2023-01-31T00:31:15;99957.19;;;2.67;100.00
21357;BME280;10836;53.068;18.234;2023-01-31T00:33:44;99970.06;;;2.65;100.00
21357;BME280;10836;53.068;18.234;2023-01-31T00:36:14;99971.38;;;2.63;100.00
21357;BME280;10836;53.068;18.234;2023-01-31T00:38:44;99982.38;;;2.61;100.00
21357;BME280;10836;53.068;18.234;2023-01-31T00:41:14;99982.97;;;2.63;100.00
21357;BME280;10836;53.068;18.234;2023-01-31T00:43:41;99987.88;;;2.66;100.00
21357;BME280;10836;53.068;18.234;2023-01-31T00:46:09;99985.25;;;2.55;100.00
21357;BME280;10836;53.068;18.234;2023-01-31T00:48:36;99998.84;;;2.60;100.00
21357;BME280;10836;53.068;18.234;2023-01-31T00:51:04;100002.91;;;2.62;100.00
21357;BME280;10836;53.068;18.234;2023-01-31T00:53:31;100012.16;;;2.66;100.00
21357;BME280;10836;53.068;18.234;2023-01-31T00:56:08;100011.56;;;2.64;100.00
21357;BME280;10836;53.068;18.234;2023-01-31T00:58:36;100016.38;;;2.62;100.00
21357;BME280;10836;53.068;18.234;2023-01-31T01:01:08;100005.50;;;2.57;100.00
21357;BME280;10836;53.068;18.234;2023-01-31T01:03:36;100006.16;;;2.64;100.00
21357;BME280;10836;53.068;18.234;2023-01-31T01:06:05;100015.13;;;2.53;100.00
21357;BME280;10836;53.068;18.234;2023-01-31T01:08:32;100017.38;;;2.45;100.00
21357;BME280;10836;53.068;18.234;2023-01-31T01:11:12;100018.41;;;2.55;100.00
21357;BME280;10836;53.068;18.234;2023-01-31T01:13:40;100013.97;;;2.49;100.00
21357;BME280;10836;53.068;18.234;2023-01-31T01:16:10;100016.06;;;2.47;100.00
21357;BME280;10836;53.068;18.234;2023-01-31T01:18:37;100022.41;;;2.41;100.00
21357;BME280;10836;53.068;18.234;2023-01-31T01:21:06;100022.88;;;2.38;100.00
21357;BME280;10836;53.068;18.234;2023-01-31T01:23:35;100032.47;;;2.34;100.00
21357;BME280;10836;53.068;18.234;2023-01-31T01:26:03;100026.88;;;2.24;100.00
21357;BME280;10836;53.068;18.234;2023-01-31T01:28:34;100027.59;;;2.08;100.00
21357;BME280;10836;53.068;18.234;2023-01-31T01:31:05;100042.34;;;2.05;100.00
21357;BME280;10836;53.068;18.234;2023-01-31T01:33:34;100044.09;;;1.99;100.00
21357;BME280;10836;53.068;18.234;2023-01-31T01:36:06;100040.47;;;2.06;100.00
21357;BME280;10836;53.068;18.234;2023-01-31T01:38:34;100053.69;;;1.95;100.00
21357;BME280;10836;53.068;18.234;2023-01-31T01:41:03;100054.75;;;1.94;100.00
21357;BME280;10836;53.068;18.234;2023-01-31T01:46:08;100063.88;;;1.93;100.00
21357;BME280;10836;53.068;18.234;2023-01-31T01:48:37;100067.75;;;1.97;100.00
21357;BME280;10836;53.068;18.234;2023-01-31T01:51:05;100070.31;;;2.04;100.00
21357;BME280;10836;53.068;18.234;2023-01-31T01:53:34;100075.09;;;1.90;100.00
21357;BME280;10836;53.068;18.234;2023-01-31T01:56:09;100082.63;;;2.12;100.00
21357;BME280;10836;53.068;18.234;2023-01-31T01:58:48;100073.03;;;2.16;100.00
21357;BME280;10836;53.068;18.234;2023-01-31T02:01:20;100072.78;;;2.06;100.00
21357;BME280;10836;53.068;18.234;2023-01-31T02:03:50;100082.28;;;2.08;100.00
21357;BME280;10836;53.068;18.234;2023-01-31T02:06:18;100084.94;;;2.20;100.00
21357;BME280;10836;53.068;18.234;2023-01-31T02:08:45;100090.34;;;2.20;100.00
21357;BME280;10836;53.068;18.234;2023-01-31T02:11:27;100093.38;;;2.23;100.00
21357;BME280;10836;53.068;18.234;2023-01-31T02:14:02;100101.13;;;2.20;100.00
21357;BME280;10836;53.068;18.234;2023-01-31T02:16:33;100095.63;;;2.26;100.00
21357;BME280;10836;53.068;18.234;2023-01-31T02:19:01;100097.38;;;2.21;100.00
21357;BME280;10836;53.068;18.234;2023-01-31T02:28:15;100110.84;;;2.21;100.00
21357;BME280;10836;53.068;18.234;2023-01-31T02:31:00;100115.88;;;2.06;100.00
21357;BME280;10836;53.068;18.234;2023-01-31T02:33:40;100115.06;;;2.05;100.00
21357;BME280;10836;53.068;18.234;2023-01-31T02:36:43;100129.00;;;2.14;100.00
21357;BME280;10836;53.068;18.234;2023-01-31T02:41:58;100126.41;;;2.07;100.00
21357;BME280;10836;53.068;18.234;2023-01-31T02:50:35;100136.69;;;1.98;100.00
21357;BME280;10836;53.068;18.234;2023-01-31T02:53:09;100140.91;;;1.94;100.00
21357;BME280;10836;53.068;18.234;2023-01-31T02:55:47;100147.00;;;2.02;100.00
21357;BME280;10836;53.068;18.234;2023-01-31T02:58:36;100142.81;;;2.06;100.00
21357;BME280;10836;53.068;18.234;2023-01-31T03:01:05;100158.84;;;2.00;100.00
21357;BME280;10836;53.068;18.234;2023-01-31T03:03:34;100167.03;;;2.06;100.00
21357;BME280;10836;53.068;18.234;2023-01-31T03:09:11;100182.38;;;2.17;100.00
21357;BME280;10836;53.068;18.234;2023-01-31T03:11:58;100181.91;;;2.20;100.00
21357;BME280;10836;53.068;18.234;2023-01-31T03:14:34;100193.66;;;2.14;100.00
21357;BME280;10836;53.068;18.234;2023-01-31T03:17:13;100192.97;;;2.30;100.00
21357;BME280;10836;53.068;18.234;2023-01-31T03:20:08;100192.50;;;2.33;100.00
21357;BME280;10836;53.068;18.234;2023-01-31T03:22:42;100194.69;;;2.24;100.00
21357;BME280;10836;53.068;18.234;2023-01-31T03:25:14;100197.88;;;2.33;100.00
21357;BME280;10836;53.068;18.234;2023-01-31T03:27:49;100204.66;;;2.24;100.00
21357;BME280;10836;53.068;18.234;2023-01-31T03:30:24;100208.53;;;2.28;100.00
21357;BME280;10836;53.068;18.234;2023-01-31T03:32:58;100205.84;;;2.28;100.00
21357;BME280;10836;53.068;18.234;2023-01-31T03:35:28;100213.31;;;2.26;100.00
21357;BME280;10836;53.068;18.234;2023-01-31T03:38:04;100219.06;;;2.29;100.00
21357;BME280;10836;53.068;18.234;2023-01-31T03:40:39;100224.94;;;2.26;100.00
21357;BME280;10836;53.068;18.234;2023-01-31T03:43:28;100224.34;;;2.24;100.00
21357;BME280;10836;53.068;18.234;2023-01-31T03:46:06;100216.88;;;2.38;100.00
21357;BME280;10836;53.068;18.234;2023-01-31T03:48:40;100226.00;;;2.37;100.00
21357;BME280;10836;53.068;18.234;2023-01-31T03:51:15;100226.66;;;2.21;100.00
21357;BME280;10836;53.068;18.234;2023-01-31T03:53:52;100235.00;;;2.31;100.00
21357;BME280;10836;53.068;18.234;2023-01-31T03:56:31;100227.13;;;2.18;100.00
21357;BME280;10836;53.068;18.234;2023-01-31T03:59:14;100227.34;;;2.05;100.00
21357;BME280;10836;53.068;18.234;2023-01-31T04:01:47;100240.66;;;1.99;100.00
21357;BME280;10836;53.068;18.234;2023-01-31T04:04:22;100243.81;;;1.96;100.00
21357;BME280;10836;53.068;18.234;2023-01-31T04:06:52;100239.66;;;1.82;100.00
21357;BME280;10836;53.068;18.234;2023-01-31T04:09:20;100248.03;;;1.74;100.00
21357;BME280;10836;53.068;18.234;2023-01-31T04:11:49;100248.03;;;1.74;100.00
21357;BME280;10836;53.068;18.234;2023-01-31T04:14:17;100256.59;;;1.71;100.00
21357;BME280;10836;53.068;18.234;2023-01-31T04:16:44;100254.94;;;1.70;100.00
21357;BME280;10836;53.068;18.234;2023-01-31T04:19:11;100259.44;;;1.58;100.00
21357;BME280;10836;53.068;18.234;2023-01-31T04:21:38;100259.34;;;1.64;100.00
21357;BME280;10836;53.068;18.234;2023-01-31T04:24:06;100269.38;;;1.57;100.00
21357;BME280;10836;53.068;18.234;2023-01-31T04:26:35;100276.03;;;1.55;100.00
21357;BME280;10836;53.068;18.234;2023-01-31T04:29:03;100282.59;;;1.59;100.00
21357;BME280;10836;53.068;18.234;2023-01-31T04:31:30;100283.94;;;1.50;100.00
21357;BME280;10836;53.068;18.234;2023-01-31T04:33:58;100289.47;;;1.37;100.00
21357;BME280;10836;53.068;18.234;2023-01-31T04:36:26;100298.22;;;1.32;100.00
21357;BME280;10836;53.068;18.234;2023-01-31T04:38:53;100299.41;;;1.36;100.00
21357;BME280;10836;53.068;18.234;2023-01-31T04:41:19;100298.09;;;1.27;100.00
21357;BME280;10836;53.068;18.234;2023-01-31T04:43:47;100297.03;;;1.28;100.00
21357;BME280;10836;53.068;18.234;2023-01-31T04:46:13;100298.38;;;1.37;100.00
21357;BME280;10836;53.068;18.234;2023-01-31T04:48:41;100299.78;;;1.40;100.00
21357;BME280;10836;53.068;18.234;2023-01-31T04:51:07;100296.88;;;1.41;100.00
21357;BME280;10836;53.068;18.234;2023-01-31T04:53:36;100307.09;;;1.32;100.00
21357;BME280;10836;53.068;18.234;2023-01-31T04:56:03;100295.91;;;1.17;100.00
21357;BME280;10836;53.068;18.234;2023-01-31T04:58:31;100307.84;;;1.21;100.00
21357;BME280;10836;53.068;18.234;2023-01-31T05:00:58;100302.53;;;1.15;100.00
21357;BME280;10836;53.068;18.234;2023-01-31T05:03:25;100316.97;;;1.20;100.00
21357;BME280;10836;53.068;18.234;2023-01-31T05:05:52;100318.63;;;1.21;100.00
21357;BME280;10836;53.068;18.234;2023-01-31T05:08:19;100328.16;;;1.17;100.00
21357;BME280;10836;53.068;18.234;2023-01-31T05:10:46;100318.44;;;1.16;100.00
21357;BME280;10836;53.068;18.234;2023-01-31T05:13:14;100334.75;;;1.21;100.00
21357;BME280;10836;53.068;18.234;2023-01-31T05:15:41;100352.38;;;1.17;100.00
21357;BME280;10836;53.068;18.234;2023-01-31T05:18:08;100355.06;;;1.17;100.00
21357;BME280;10836;53.068;18.234;2023-01-31T05:20:36;100351.06;;;1.26;100.00
21357;BME280;10836;53.068;18.234;2023-01-31T05:23:07;100352.59;;;1.16;100.00
21357;BME280;10836;53.068;18.234;2023-01-31T05:25:34;100355.50;;;1.14;100.00
21357;BME280;10836;53.068;18.234;2023-01-31T05:28:03;100347.16;;;1.22;100.00
21357;BME280;10836;53.068;18.234;2023-01-31T05:30:31;100362.09;;;1.18;100.00
21357;BME280;10836;53.068;18.234;2023-01-31T05:32:58;100365.44;;;1.14;100.00
21357;BME280;10836;53.068;18.234;2023-01-31T05:35:25;100369.53;;;1.16;100.00
21357;BME280;10836;53.068;18.234;2023-01-31T05:37:53;100373.72;;;1.12;100.00
21357;BME280;10836;53.068;18.234;2023-01-31T05:40:20;100365.47;;;1.07;100.00
21357;BME280;10836;53.068;18.234;2023-01-31T05:42:58;100362.97;;;1.12;100.00
21357;BME280;10836;53.068;18.234;2023-01-31T05:45:27;100379.53;;;1.09;100.00
21357;BME280;10836;53.068;18.234;2023-01-31T05:47:55;100372.28;;;1.10;100.00
21357;BME280;10836;53.068;18.234;2023-01-31T05:50:23;100383.25;;;1.08;100.00
21357;BME280;10836;53.068;18.234;2023-01-31T05:52:54;100385.19;;;1.01;100.00
21357;BME280;10836;53.068;18.234;2023-01-31T05:55:22;100380.31;;;1.16;100.00
21357;BME280;10836;53.068;18.234;2023-01-31T05:57:51;100385.69;;;1.16;100.00
21357;BME280;10836;53.068;18.234;2023-01-31T06:00:18;100389.38;;;1.22;100.00
21357;BME280;10836;53.068;18.234;2023-01-31T06:02:46;100395.13;;;1.25;100.00
21357;BME280;10836;53.068;18.234;2023-01-31T06:05:14;100391.00;;;1.23;100.00
21357;BME280;10836;53.068;18.234;2023-01-31T06:07:41;100403.84;;;1.21;100.00
21357;BME280;10836;53.068;18.234;2023-01-31T06:10:10;100406.16;;;1.17;100.00
21357;BME280;10836;53.068;18.234;2023-01-31T06:12:37;100412.75;;;1.21;100.00
21357;BME280;10836;53.068;18.234;2023-01-31T06:15:04;100415.91;;;1.12;100.00
21357;BME280;10836;53.068;18.234;2023-01-31T06:17:31;100424.16;;;1.17;100.00
21357;BME280;10836;53.068;18.234;2023-01-31T06:19:58;100428.75;;;1.10;100.00
21357;BME280;10836;53.068;18.234;2023-01-31T06:22:26;100436.94;;;1.21;100.00
21357;BME280;10836;53.068;18.234;2023-01-31T06:24:52;100440.25;;;1.23;100.00
21357;BME280;10836;53.068;18.234;2023-01-31T06:27:19;100443.59;;;1.19;100.00
21357;BME280;10836;53.068;18.234;2023-01-31T06:29:46;100451.06;;;1.17;100.00
21357;BME280;10836;53.068;18.234;2023-01-31T06:32:13;100454.78;;;1.16;100.00
21357;BME280;10836;53.068;18.234;2023-01-31T06:34:40;100465.09;;;1.19;100.00
21357;BME280;10836;53.068;18.234;2023-01-31T06:37:08;100462.97;;;1.27;100.00
21357;BME280;10836;53.068;18.234;2023-01-31T06:39:36;100471.19;;;1.32;100.00
21357;BME280;10836;53.068;18.234;2023-01-31T06:42:03;100476.13;;;1.36;100.00
21357;BME280;10836;53.068;18.234;2023-01-31T06:44:30;100481.06;;;1.39;100.00
21357;BME280;10836;53.068;18.234;2023-01-31T06:47:00;100490.47;;;1.29;100.00
21357;BME280;10836;53.068;18.234;2023-01-31T06:49:27;100485.69;;;1.31;100.00
21357;BME280;10836;53.068;18.234;2023-01-31T06:51:54;100487.69;;;1.43;100.00
21357;BME280;10836;53.068;18.234;2023-01-31T06:54:21;100491.34;;;1.48;100.00
21357;BME280;10836;53.068;18.234;2023-01-31T06:56:48;100501.19;;;1.61;100.00
21357;BME280;10836;53.068;18.234;2023-01-31T06:59:15;100502.84;;;1.62;100.00
21357;BME280;10836;53.068;18.234;2023-01-31T07:01:42;100494.34;;;1.65;100.00
21357;BME280;10836;53.068;18.234;2023-01-31T07:04:08;100510.22;;;1.73;100.00
21357;BME280;10836;53.068;18.234;2023-01-31T07:06:35;100509.63;;;1.89;100.00
21357;BME280;10836;53.068;18.234;2023-01-31T07:09:02;100517.47;;;1.73;100.00
21357;BME280;10836;53.068;18.234;2023-01-31T07:11:30;100518.22;;;1.80;100.00
21357;BME280;10836;53.068;18.234;2023-01-31T07:13:57;100512.59;;;1.81;100.00
21357;BME280;10836;53.068;18.234;2023-01-31T07:16:24;100509.75;;;1.76;100.00
21357;BME280;10836;53.068;18.234;2023-01-31T07:18:52;100509.75;;;1.76;100.00
21357;BME280;10836;53.068;18.234;2023-01-31T07:21:21;100522.50;;;1.87;100.00
21357;BME280;10836;53.068;18.234;2023-01-31T07:23:49;100527.81;;;1.94;100.00
21357;BME280;10836;53.068;18.234;2023-01-31T07:26:17;100523.97;;;1.83;100.00
21357;BME280;10836;53.068;18.234;2023-01-31T07:28:43;100536.22;;;1.79;100.00
21357;BME280;10836;53.068;18.234;2023-01-31T07:31:12;100545.50;;;1.83;100.00
21357;BME280;10836;53.068;18.234;2023-01-31T07:33:40;100553.09;;;1.93;100.00
21357;BME280;10836;53.068;18.234;2023-01-31T07:36:11;100552.81;;;1.76;100.00
21357;BME280;10836;53.068;18.234;2023-01-31T07:38:38;100551.16;;;1.75;100.00
21357;BME280;10836;53.068;18.234;2023-01-31T07:41:05;100564.69;;;1.93;100.00
21357;BME280;10836;53.068;18.234;2023-01-31T07:43:34;100558.38;;;1.81;100.00
21357;BME280;10836;53.068;18.234;2023-01-31T07:46:04;100567.28;;;2.07;100.00
21357;BME280;10836;53.068;18.234;2023-01-31T07:48:31;100566.84;;;2.28;100.00
21357;BME280;10836;53.068;18.234;2023-01-31T07:51:00;100574.06;;;2.52;100.00
21357;BME280;10836;53.068;18.234;2023-01-31T07:53:31;100573.84;;;2.90;100.00
21357;BME280;10836;53.068;18.234;2023-01-31T07:56:13;100575.03;;;2.76;100.00
21357;BME280;10836;53.068;18.234;2023-01-31T07:58:42;100575.34;;;2.50;100.00
21357;BME280;10836;53.068;18.234;2023-01-31T08:01:14;100577.38;;;2.54;100.00
21357;BME280;10836;53.068;18.234;2023-01-31T08:04:00;100584.09;;;2.82;100.00
21357;BME280;10836;53.068;18.234;2023-01-31T08:06:45;100579.81;;;3.41;100.00
21357;BME280;10836;53.068;18.234;2023-01-31T08:09:13;100568.41;;;3.39;98.92
21357;BME280;10836;53.068;18.234;2023-01-31T08:11:40;100589.53;;;3.72;98.96
21357;BME280;10836;53.068;18.234;2023-01-31T08:14:08;100576.28;;;3.93;96.69
21357;BME280;10836;53.068;18.234;2023-01-31T08:16:36;100575.13;;;4.36;92.82
21357;BME280;10836;53.068;18.234;2023-01-31T08:19:03;100578.91;;;4.98;92.31
21357;BME280;10836;53.068;18.234;2023-01-31T08:21:30;100587.59;;;5.00;89.60
21357;BME280;10836;53.068;18.234;2023-01-31T08:23:57;100574.69;;;6.10;83.22
21357;BME280;10836;53.068;18.234;2023-01-31T08:26:24;100590.81;;;5.99;82.56
21357;BME280;10836;53.068;18.234;2023-01-31T08:28:51;100591.66;;;6.00;80.92
21357;BME280;10836;53.068;18.234;2023-01-31T08:31:22;100593.94;;;6.25;78.87
21357;BME280;10836;53.068;18.234;2023-01-31T08:33:50;100596.06;;;7.00;75.79
21357;BME280;10836;53.068;18.234;2023-01-31T08:36:21;100585.22;;;5.89;79.21
21357;BME280;10836;53.068;18.234;2023-01-31T08:38:49;100591.63;;;6.94;76.17
21357;BME280;10836;53.068;18.234;2023-01-31T08:41:18;100604.50;;;5.48;81.85
21357;BME280;10836;53.068;18.234;2023-01-31T08:43:46;100590.91;;;5.76;82.12
21357;BME280;10836;53.068;18.234;2023-01-31T08:46:26;100603.88;;;6.36;78.72
21357;BME280;10836;53.068;18.234;2023-01-31T08:48:55;100592.56;;;5.77;79.87
21357;BME280;10836;53.068;18.234;2023-01-31T08:51:22;100610.84;;;5.53;80.46
21357;BME280;10836;53.068;18.234;2023-01-31T08:53:49;100614.47;;;6.04;79.16
21357;BME280;10836;53.068;18.234;2023-01-31T08:56:17;100617.75;;;6.23;76.45
21357;BME280;10836;53.068;18.234;2023-01-31T08:58:47;100613.09;;;7.17;73.18
21357;BME280;10836;53.068;18.234;2023-01-31T09:01:16;100612.00;;;7.40;72.20
21357;BME280;10836;53.068;18.234;2023-01-31T09:03:44;100620.19;;;7.18;72.93
21357;BME280;10836;53.068;18.234;2023-01-31T09:06:20;100618.34;;;7.24;72.76
21357;BME280;10836;53.068;18.234;2023-01-31T09:08:47;100619.72;;;7.75;71.18
21357;BME280;10836;53.068;18.234;2023-01-31T09:11:15;100624.50;;;7.41;70.58
21357;BME280;10836;53.068;18.234;2023-01-31T09:13:46;100633.25;;;7.70;69.22
21357;BME280;10836;53.068;18.234;2023-01-31T09:16:15;100634.41;;;7.74;64.66
21357;BME280;10836;53.068;18.234;2023-01-31T09:18:42;100643.28;;;7.43;67.79
21357;BME280;10836;53.068;18.234;2023-01-31T09:21:15;100641.38;;;7.43;64.60
21357;BME280;10836;53.068;18.234;2023-01-31T09:23:42;100640.22;;;8.15;61.39
21357;BME280;10836;53.068;18.234;2023-01-31T09:26:11;100644.59;;;6.75;64.45
21357;BME280;10836;53.068;18.234;2023-01-31T09:28:38;100632.22;;;6.45;65.15
21357;BME280;10836;53.068;18.234;2023-01-31T09:31:14;100649.78;;;6.98;66.44
21357;BME280;10836;53.068;18.234;2023-01-31T09:33:42;100649.94;;;6.70;65.80
21357;BME280;10836;53.068;18.234;2023-01-31T09:36:12;100636.31;;;5.41;68.98
21357;BME280;10836;53.068;18.234;2023-01-31T09:38:39;100644.97;;;5.83;67.74
21357;BME280;10836;53.068;18.234;2023-01-31T09:41:37;100645.72;;;5.50;69.50
21357;BME280;10836;53.068;18.234;2023-01-31T09:44:37;100653.06;;;5.94;67.71
21357;BME280;10836;53.068;18.234;2023-01-31T09:47:12;100650.84;;;5.63;69.58
21357;BME280;10836;53.068;18.234;2023-01-31T09:49:55;100649.84;;;5.12;71.33
21357;BME280;10836;53.068;18.234;2023-01-31T09:52:25;100646.56;;;4.87;72.26
21357;BME280;10836;53.068;18.234;2023-01-31T09:54:54;100639.19;;;4.35;74.19
21357;BME280;10836;53.068;18.234;2023-01-31T09:57:31;100649.63;;;4.79;72.29
21357;BME280;10836;53.068;18.234;2023-01-31T10:00:15;100643.63;;;4.07;74.22
21357;BME280;10836;53.068;18.234;2023-01-31T10:06:19;100650.53;;;4.03;75.59
21357;BME280;10836;53.068;18.234;2023-01-31T10:11:46;100644.59;;;3.71;76.29
21357;BME280;10836;53.068;18.234;2023-01-31T10:14:26;100657.63;;;3.44;77.10
21357;BME280;10836;53.068;18.234;2023-01-31T10:19:27;100657.81;;;3.30;77.25
21357;BME280;10836;53.068;18.234;2023-01-31T10:22:01;100659.97;;;3.22;78.82
21357;BME280;10836;53.068;18.234;2023-01-31T10:24:38;100658.25;;;3.09;77.75
21357;BME280;10836;53.068;18.234;2023-01-31T10:27:15;100661.56;;;3.11;77.25
21357;BME280;10836;53.068;18.234;2023-01-31T10:29:50;100660.50;;;3.12;78.76
21357;BME280;10836;53.068;18.234;2023-01-31T10:32:32;100656.53;;;3.33;76.96
21357;BME280;10836;53.068;18.234;2023-01-31T10:35:11;100653.38;;;3.18;77.52
21357;BME280;10836;53.068;18.234;2023-01-31T10:37:53;100661.84;;;3.40;76.16
21357;BME280;10836;53.068;18.234;2023-01-31T10:40:28;100641.69;;;3.54;76.10
21357;BME280;10836;53.068;18.234;2023-01-31T10:43:02;100638.81;;;3.67;76.20
21357;BME280;10836;53.068;18.234;2023-01-31T10:45:35;100636.25;;;3.72;75.00
21357;BME280;10836;53.068;18.234;2023-01-31T10:48:33;100628.78;;;3.56;74.21
21357;BME280;10836;53.068;18.234;2023-01-31T10:52:15;100630.13;;;3.65;75.36
21357;BME280;10836;53.068;18.234;2023-01-31T10:56:51;100623.16;;;3.46;75.77
21357;BME280;10836;53.068;18.234;2023-01-31T10:59:40;100631.47;;;3.44;75.95
21357;BME280;10836;53.068;18.234;2023-01-31T11:02:21;100632.38;;;3.38;75.67
21357;BME280;10836;53.068;18.234;2023-01-31T11:04:51;100630.06;;;3.23;75.69
21357;BME280;10836;53.068;18.234;2023-01-31T11:07:19;100631.13;;;3.04;76.94
21357;BME280;10836;53.068;18.234;2023-01-31T11:09:52;100632.69;;;3.12;77.01
21357;BME280;10836;53.068;18.234;2023-01-31T11:12:21;100635.00;;;3.26;76.96
21357;BME280;10836;53.068;18.234;2023-01-31T11:15:04;100620.19;;;3.17;75.48
21357;BME280;10836;53.068;18.234;2023-01-31T11:17:34;100622.13;;;3.28;75.84
21357;BME280;10836;53.068;18.234;2023-01-31T11:20:03;100623.78;;;3.29;75.07
21357;BME280;10836;53.068;18.234;2023-01-31T11:22:34;100624.81;;;3.28;76.85
21357;BME280;10836;53.068;18.234;2023-01-31T11:25:03;100618.00;;;3.56;75.18
21357;BME280;10836;53.068;18.234;2023-01-31T11:27:39;100627.50;;;3.28;75.85
21357;BME280;10836;53.068;18.234;2023-01-31T11:30:27;100626.59;;;3.34;76.90
21357;BME280;10836;53.068;18.234;2023-01-31T11:32:56;100615.00;;;3.16;76.91
21357;BME280;10836;53.068;18.234;2023-01-31T11:35:27;100619.44;;;3.10;76.55
21357;BME280;10836;53.068;18.234;2023-01-31T11:37:56;100611.50;;;3.15;76.79
21357;BME280;10836;53.068;18.234;2023-01-31T11:42:59;100618.25;;;3.06;77.95
21357;BME280;10836;53.068;18.234;2023-01-31T11:45:29;100614.94;;;3.04;78.71
21357;BME280;10836;53.068;18.234;2023-01-31T11:48:04;100617.41;;;3.06;77.52
21357;BME280;10836;53.068;18.234;2023-01-31T11:50:37;100604.44;;;3.14;76.17
21357;BME280;10836;53.068;18.234;2023-01-31T11:53:26;100607.28;;;3.19;75.63
21357;BME280;10836;53.068;18.234;2023-01-31T11:55:56;100614.25;;;3.09;78.54
21357;BME280;10836;53.068;18.234;2023-01-31T11:58:38;100598.22;;;3.14;77.23
21357;BME280;10836;53.068;18.234;2023-01-31T12:01:12;100595.00;;;3.05;77.89
21357;BME280;10836;53.068;18.234;2023-01-31T12:03:47;100587.50;;;3.07;78.76
21357;BME280;10836;53.068;18.234;2023-01-31T12:06:37;100575.00;;;3.13;79.11
21357;BME280;10836;53.068;18.234;2023-01-31T12:09:18;100575.22;;;3.11;79.05
21357;BME280;10836;53.068;18.234;2023-01-31T12:11:54;100565.63;;;3.15;79.22
21357;BME280;10836;53.068;18.234;2023-01-31T12:14:23;100563.38;;;3.12;79.68
21357;BME280;10836;53.068;18.234;2023-01-31T12:16:53;100554.09;;;3.08;79.63
21357;BME280;10836;53.068;18.234;2023-01-31T12:19:52;100551.81;;;3.23;78.88
21357;BME280;10836;53.068;18.234;2023-01-31T12:22:29;100549.13;;;3.23;80.46
21357;BME280;10836;53.068;18.234;2023-01-31T12:39:58;100517.81;;;3.04;82.54
21357;BME280;10836;53.068;18.234;2023-01-31T12:45:43;100513.63;;;3.08;83.09
21357;BME280;10836;53.068;18.234;2023-01-31T12:48:39;100504.75;;;3.19;84.92
21357;BME280;10836;53.068;18.234;2023-01-31T12:59:02;100493.03;;;3.25;85.24
21357;BME280;10836;53.068;18.234;2023-01-31T13:04:29;100490.75;;;3.41;85.36
21357;BME280;10836;53.068;18.234;2023-01-31T13:07:02;100484.06;;;3.43;85.54
21357;BME280;10836;53.068;18.234;2023-01-31T13:09:35;100485.22;;;3.36;85.54
21357;BME280;10836;53.068;18.234;2023-01-31T13:14:47;100477.50;;;3.09;87.64
21357;BME280;10836;53.068;18.234;2023-01-31T13:17:22;100472.56;;;3.06;88.35
21357;BME280;10836;53.068;18.234;2023-01-31T13:19:55;100459.44;;;2.98;89.48
21357;BME280;10836;53.068;18.234;2023-01-31T13:22:27;100457.19;;;3.07;89.77
21357;BME280;10836;53.068;18.234;2023-01-31T13:25:14;100452.03;;;3.70;87.69
21357;BME280;10836;53.068;18.234;2023-01-31T13:27:45;100443.56;;;4.01;84.59
21357;BME280;10836;53.068;18.234;2023-01-31T13:30:20;100449.41;;;4.22;83.40
21357;BME280;10836;53.068;18.234;2023-01-31T13:32:51;100448.38;;;4.11;82.76
21357;BME280;10836;53.068;18.234;2023-01-31T13:35:24;100432.28;;;3.93;84.53
21357;BME280;10836;53.068;18.234;2023-01-31T13:37:59;100438.41;;;3.88;85.31
21357;BME280;10836;53.068;18.234;2023-01-31T13:40:31;100437.47;;;3.71;87.60
21357;BME280;10836;53.068;18.234;2023-01-31T13:43:10;100444.28;;;3.62;86.80
21357;BME280;10836;53.068;18.234;2023-01-31T13:45:45;100439.44;;;3.52;88.13
21357;BME280;10836;53.068;18.234;2023-01-31T13:48:27;100439.09;;;3.49;90.37
21357;BME280;10836;53.068;18.234;2023-01-31T13:51:02;100430.41;;;3.47;90.64
21357;BME280;10836;53.068;18.234;2023-01-31T13:53:46;100428.75;;;3.22;90.16
21357;BME280;10836;53.068;18.234;2023-01-31T13:56:21;100435.53;;;3.13;90.41
21357;BME280;10836;53.068;18.234;2023-01-31T13:58:50;100435.03;;;2.93;92.63
21357;BME280;10836;53.068;18.234;2023-01-31T14:01:20;100429.03;;;2.91;92.75
21357;BME280;10836;53.068;18.234;2023-01-31T14:14:43;100415.00;;;2.71;95.99
21357;BME280;10836;53.068;18.234;2023-01-31T14:17:58;100399.63;;;2.59;96.93
21357;BME280;10836;53.068;18.234;2023-01-31T14:20:00;100401.13;;;2.55;98.06
21357;BME280;10836;53.068;18.234;2023-01-31T14:22:33;100395.59;;;2.50;98.59
21357;BME280;10836;53.068;18.234;2023-01-31T14:27:38;100403.41;;;2.40;100.00
21357;BME280;10836;53.068;18.234;2023-01-31T14:30:32;100398.09;;;2.33;100.00
21357;BME280;10836;53.068;18.234;2023-01-31T14:33:26;100396.22;;;2.34;100.00